createdAt,value
2023-11-25T00:01:11.133Z,86.19
2023-11-25T00:03:43.018Z,86.51
2023-11-25T00:06:16.092Z,86.27
2023-11-25T00:08:48.420Z,86.41
2023-11-25T00:11:28.134Z,85.86
2023-11-25T00:14:01.748Z,85.92
2023-11-25T00:16:33.635Z,85.94
2023-11-25T00:19:07.341Z,86.02
2023-11-25T00:21:39.296Z,86.09
2023-11-25T00:24:11.199Z,86.18
2023-11-25T00:26:44.106Z,85.43
2023-11-25T00:29:17.350Z,85.53
2023-11-25T00:31:50.529Z,85.49
2023-11-25T00:34:28.375Z,85.74
2023-11-25T00:37:02.626Z,86.32
2023-11-25T00:39:35.901Z,86.07
2023-11-25T00:42:07.811Z,85.78
2023-11-25T00:44:39.616Z,86.98
2023-11-25T00:47:14.792Z,87.02
2023-11-25T00:49:50.366Z,86.53
2023-11-25T00:52:22.277Z,86.70
2023-11-25T00:54:54.878Z,86.86
2023-11-25T00:57:27.639Z,87.06
2023-11-25T00:59:59.654Z,87.43
2023-11-25T01:02:32.247Z,87.39
2023-11-25T01:05:05.913Z,87.13
2023-11-25T01:07:38.736Z,87.49
2023-11-25T01:10:12.034Z,87.53
2023-11-25T01:12:43.903Z,87.69
2023-11-25T01:15:16.586Z,87.82
2023-11-25T01:17:48.428Z,87.35
2023-11-25T01:20:20.427Z,86.93
2023-11-25T01:22:52.540Z,86.29
2023-11-25T01:25:24.561Z,86.39
2023-11-25T01:27:56.518Z,86.70
2023-11-25T01:30:28.406Z,87.05
2023-11-25T01:33:07.877Z,86.49
2023-11-25T01:35:39.771Z,86.52
2023-11-25T01:38:11.552Z,86.56
2023-11-25T01:40:43.388Z,86.31
2023-11-25T01:43:15.815Z,86.29
2023-11-25T01:45:50.656Z,86.38
2023-11-25T01:48:23.464Z,86.26
2023-11-25T01:50:55.831Z,86.85
2023-11-25T01:53:28.597Z,86.96
2023-11-25T01:56:00.908Z,87.10
2023-11-25T01:58:33.619Z,87.35
2023-11-25T02:01:05.647Z,87.39
2023-11-25T02:03:37.608Z,86.87
2023-11-25T02:06:09.667Z,87.27
2023-11-25T02:08:44.381Z,87.42
2023-11-25T02:11:16.339Z,87.21
2023-11-25T02:13:48.167Z,87.25
2023-11-25T02:16:21.681Z,87.67
2023-11-25T02:18:53.604Z,87.57
2023-11-25T02:21:26.485Z,87.24
2023-11-25T02:23:58.253Z,87.64
2023-11-25T02:26:31.107Z,88.13
2023-11-25T02:29:02.907Z,89.09
2023-11-25T02:31:34.906Z,89.43
2023-11-25T02:34:11.325Z,89.29
2023-11-25T02:36:43.454Z,88.90
2023-11-25T02:39:16.160Z,89.09
2023-11-25T02:41:50.305Z,88.94
2023-11-25T02:44:22.730Z,89.28
2023-11-25T02:46:54.719Z,89.58
2023-11-25T02:49:27.297Z,89.60
2023-11-25T02:52:00.488Z,90.66
2023-11-25T02:54:32.309Z,90.31
2023-11-25T02:57:05.989Z,90.93
2023-11-25T02:59:38.720Z,91.00
2023-11-25T03:02:11.570Z,90.26
2023-11-25T03:04:46.943Z,89.28
2023-11-25T03:07:20.222Z,88.98
2023-11-25T03:09:52.127Z,88.80
2023-11-25T03:12:24.089Z,88.03
2023-11-25T03:14:55.966Z,88.30
2023-11-25T03:17:29.209Z,87.90
2023-11-25T03:20:01.042Z,87.71
2023-11-25T03:22:32.852Z,87.61
2023-11-25T03:25:06.508Z,87.64
2023-11-25T03:27:38.292Z,87.43
2023-11-25T03:30:13.157Z,87.20
2023-11-25T03:32:45.095Z,86.80
2023-11-25T03:35:17.726Z,86.60
2023-11-25T03:37:49.565Z,86.08
2023-11-25T03:40:21.540Z,86.36
2023-11-25T03:42:53.375Z,86.26
2023-11-25T03:45:25.258Z,85.38
2023-11-25T03:47:57.095Z,85.37
2023-11-25T03:50:28.971Z,85.85
2023-11-25T03:53:01.024Z,85.70
2023-11-25T03:55:34.043Z,86.05
2023-11-25T03:58:06.233Z,86.44
2023-11-25T04:00:38.219Z,85.82
2023-11-25T04:03:10.255Z,86.34
2023-11-25T04:05:42.073Z,86.51
2023-11-25T04:08:13.827Z,86.47
2023-11-25T04:10:45.645Z,86.57
2023-11-25T04:13:17.502Z,86.97
2023-11-25T04:15:49.277Z,86.59
2023-11-25T04:18:21.168Z,85.89
2023-11-25T04:20:54.240Z,85.54
2023-11-25T04:23:26.423Z,85.83
2023-11-25T04:25:58.390Z,86.02
2023-11-25T04:28:31.173Z,85.21
2023-11-25T04:31:04.019Z,84.37
2023-11-25T04:33:36.414Z,84.83
2023-11-25T04:36:09.045Z,84.76
2023-11-25T04:38:41.092Z,84.71
2023-11-25T04:41:13.058Z,85.65
2023-11-25T04:43:44.925Z,84.50
2023-11-25T04:46:17.322Z,84.70
2023-11-25T04:48:49.101Z,84.38
2023-11-25T04:51:25.133Z,84.30
2023-11-25T04:53:56.893Z,84.69
2023-11-25T04:56:28.681Z,85.37
2023-11-25T04:59:00.442Z,84.71
2023-11-25T05:01:32.292Z,85.18
2023-11-25T05:04:06.434Z,84.93
2023-11-25T05:06:38.269Z,85.05
2023-11-25T05:09:10.044Z,84.81
2023-11-25T05:11:41.818Z,84.64
2023-11-25T05:14:14.056Z,84.60
2023-11-25T05:16:45.889Z,85.03
2023-11-25T05:19:17.861Z,85.38
2023-11-25T05:21:50.543Z,85.10
2023-11-25T05:24:22.299Z,85.07
2023-11-25T05:26:54.723Z,85.21
2023-11-25T05:29:26.496Z,85.48
2023-11-25T05:31:58.626Z,85.43
2023-11-25T05:34:30.551Z,85.90
2023-11-25T05:37:02.322Z,85.47
2023-11-25T05:39:34.096Z,85.52
2023-11-25T05:42:06.865Z,85.78
2023-11-25T05:44:38.659Z,85.36
2023-11-25T05:47:10.451Z,85.33
2023-11-25T05:49:42.605Z,85.39
2023-11-25T05:52:14.590Z,84.77
2023-11-25T05:54:46.551Z,85.36
2023-11-25T05:57:18.295Z,85.17
2023-11-25T05:59:50.045Z,85.33
2023-11-25T06:02:22.441Z,85.65
2023-11-25T06:04:54.467Z,85.83
2023-11-25T06:07:26.346Z,86.10
2023-11-25T06:09:58.106Z,86.53
2023-11-25T06:12:29.844Z,86.89
2023-11-25T06:15:01.940Z,87.33
2023-11-25T06:17:33.806Z,87.45
2023-11-25T06:20:06.291Z,88.21
2023-11-25T06:22:38.784Z,88.68
2023-11-25T06:25:10.671Z,88.18
2023-11-25T06:27:44.568Z,88.95
2023-11-25T06:30:18.307Z,89.53
2023-11-25T06:32:50.088Z,90.11
2023-11-25T06:35:25.110Z,90.00
2023-11-25T06:37:56.946Z,89.96
2023-11-25T06:40:28.834Z,89.29
2023-11-25T06:43:01.879Z,90.63
2023-11-25T06:45:35.236Z,89.79
2023-11-25T06:48:07.118Z,89.37
2023-11-25T06:50:39.337Z,89.75
2023-11-25T06:53:11.120Z,90.64
2023-11-25T06:55:42.970Z,90.66
2023-11-25T06:58:15.442Z,90.77
2023-11-25T07:00:47.348Z,90.78
2023-11-25T07:03:19.192Z,90.71
2023-11-25T07:05:50.982Z,90.67
2023-11-25T07:08:22.727Z,90.66
2023-11-25T07:11:00.556Z,90.61
2023-11-25T07:13:33.614Z,90.27
2023-11-25T07:16:06.205Z,90.26
2023-11-25T07:18:43.812Z,90.07
2023-11-25T07:21:15.912Z,90.50
2023-11-25T07:23:47.685Z,90.68
2023-11-25T07:26:19.741Z,90.56
2023-11-25T07:28:51.547Z,91.04
2023-11-25T07:31:23.781Z,90.97
2023-11-25T07:33:55.856Z,91.66
2023-11-25T07:36:27.713Z,91.15
2023-11-25T07:38:59.599Z,91.14
2023-11-25T07:41:31.365Z,91.38
2023-11-25T07:44:03.209Z,91.70
2023-11-25T07:46:35.067Z,91.47
2023-11-25T07:49:06.979Z,91.18
2023-11-25T07:51:38.733Z,90.43
2023-11-25T07:54:10.477Z,90.16
2023-11-25T07:56:42.371Z,90.77
2023-11-25T07:59:14.721Z,90.95
2023-11-25T08:01:46.824Z,90.56
2023-11-25T08:04:18.777Z,89.88
2023-11-25T08:06:50.839Z,89.37
2023-11-25T08:09:22.628Z,89.41
2023-11-25T08:11:54.700Z,90.14
2023-11-25T08:14:26.664Z,89.19
2023-11-25T08:16:58.473Z,88.65
2023-11-25T08:19:30.465Z,88.91
2023-11-25T08:22:02.252Z,89.09
2023-11-25T08:24:35.894Z,88.26
2023-11-25T08:27:07.638Z,88.25
2023-11-25T08:29:41.479Z,88.18
2023-11-25T08:32:14.615Z,88.35
2023-11-25T08:34:46.529Z,88.36
2023-11-25T08:37:18.341Z,88.10
2023-11-25T08:39:50.108Z,88.17
2023-11-25T08:42:26.130Z,87.25
2023-11-25T08:44:57.885Z,87.41
2023-11-25T08:47:29.786Z,87.16
2023-11-25T08:50:01.689Z,86.46
2023-11-25T08:52:36.524Z,85.96
2023-11-25T08:55:10.886Z,84.95
2023-11-25T08:57:42.862Z,84.71
2023-11-25T09:00:21.664Z,85.24
2023-11-25T09:02:55.605Z,84.70
2023-11-25T09:05:29.506Z,84.72
2023-11-25T09:08:02.258Z,83.80
2023-11-25T09:10:36.223Z,83.41
2023-11-25T09:13:08.043Z,85.16
2023-11-25T09:15:42.130Z,84.49
2023-11-25T09:18:14.326Z,84.23
2023-11-25T09:20:46.790Z,83.43
2023-11-25T09:23:18.557Z,83.21
2023-11-25T09:25:50.380Z,84.32
2023-11-25T09:28:22.198Z,84.92
2023-11-25T09:30:54.033Z,84.25
2023-11-25T09:33:25.808Z,84.53
2023-11-25T09:35:57.621Z,84.13
2023-11-25T09:38:29.373Z,84.01
2023-11-25T09:41:01.430Z,83.25
2023-11-25T09:43:33.230Z,82.98
2023-11-25T09:46:05.469Z,82.45
2023-11-25T09:48:37.272Z,82.98
2023-11-25T09:51:09.776Z,82.06
2023-11-25T09:53:44.255Z,82.55
2023-11-25T09:56:18.242Z,81.98
2023-11-25T09:58:50.778Z,82.09
2023-11-25T10:01:24.139Z,81.37
2023-11-25T10:03:57.814Z,82.08
2023-11-25T10:06:32.383Z,83.32
2023-11-25T10:09:04.387Z,84.96
2023-11-25T10:11:37.082Z,85.65
2023-11-25T10:14:11.346Z,86.58
2023-11-25T10:16:45.589Z,88.09
2023-11-25T10:19:19.580Z,89.09
2023-11-25T10:21:53.173Z,89.52
2023-11-25T10:24:25.124Z,89.99
2023-11-25T10:26:57.107Z,89.94
2023-11-25T10:29:30.319Z,90.21
2023-11-25T10:32:02.099Z,90.72
2023-11-25T10:34:33.881Z,91.15
2023-11-25T10:37:06.168Z,91.27
2023-11-25T10:39:37.981Z,90.78
2023-11-25T10:42:11.061Z,90.60
2023-11-25T10:44:42.981Z,91.26
2023-11-25T10:47:35.089Z,91.53
2023-11-25T10:50:08.304Z,91.41
2023-11-25T10:52:44.932Z,91.26
2023-11-25T10:55:18.821Z,91.30
2023-11-25T10:57:50.709Z,91.07
2023-11-25T11:00:22.969Z,91.29
2023-11-25T11:02:58.615Z,91.29
2023-11-25T11:05:41.792Z,91.19
2023-11-25T11:08:21.830Z,92.29
2023-11-25T11:11:00.700Z,92.44
2023-11-25T11:13:39.140Z,92.07
2023-11-25T11:16:18.711Z,92.51
2023-11-25T11:18:53.952Z,92.52
2023-11-25T11:21:33.438Z,93.25
2023-11-25T11:24:09.421Z,92.31
2023-11-25T11:27:05.342Z,92.27
2023-11-25T11:30:14.831Z,91.95
2023-11-25T11:32:48.174Z,92.25
2023-11-25T11:35:23.561Z,91.71
2023-11-25T11:37:58.880Z,91.90
2023-11-25T11:40:30.846Z,90.99
2023-11-25T11:43:05.403Z,90.45
2023-11-25T11:45:37.358Z,90.47
2023-11-25T11:48:15.316Z,91.24
2023-11-25T11:50:51.854Z,91.13
2023-11-25T11:53:25.148Z,91.99
2023-11-25T11:55:57.362Z,91.91
2023-11-25T11:58:29.666Z,91.86
2023-11-25T12:01:01.567Z,91.45
2023-11-25T12:03:35.598Z,91.72
2023-11-25T12:06:07.978Z,92.35
2023-11-25T12:08:39.797Z,91.86
2023-11-25T12:11:13.924Z,91.04
2023-11-25T12:13:45.728Z,90.75
2023-11-25T12:16:17.549Z,89.98
2023-11-25T12:18:50.057Z,89.17
2023-11-25T12:21:21.878Z,89.64
2023-11-25T12:23:53.804Z,88.82
2023-11-25T12:26:27.068Z,88.21
2023-11-25T12:29:02.194Z,88.36
2023-11-25T12:31:34.261Z,88.21
2023-11-25T12:34:07.116Z,87.72
2023-11-25T12:36:39.307Z,87.56
2023-11-25T12:39:13.817Z,87.34
2023-11-25T12:41:45.649Z,86.63
2023-11-25T12:44:18.192Z,86.37
2023-11-25T12:47:05.174Z,86.19
2023-11-25T12:49:37.088Z,85.82
2023-11-25T12:52:20.213Z,86.64
2023-11-25T12:54:54.226Z,86.39
2023-11-25T12:57:29.360Z,86.46
2023-11-25T13:00:12.435Z,87.21
2023-11-25T13:02:47.748Z,86.34
2023-11-25T13:05:25.682Z,86.62
2023-11-25T13:07:57.928Z,86.58
2023-11-25T13:10:29.716Z,86.72
2023-11-25T13:13:04.050Z,86.54
2023-11-25T13:15:35.809Z,86.49
2023-11-25T13:18:09.014Z,86.16
2023-11-25T13:20:41.747Z,86.05
2023-11-25T13:23:13.695Z,86.41
2023-11-25T13:25:55.279Z,85.96
2023-11-25T13:28:27.162Z,85.83
2023-11-25T13:30:58.968Z,84.92
2023-11-25T13:33:30.779Z,85.66
2023-11-25T13:36:02.572Z,85.78
2023-11-25T13:38:35.035Z,85.15
2023-11-25T13:41:06.805Z,84.58
2023-11-25T13:43:38.679Z,84.55
2023-11-25T13:46:10.806Z,84.21
2023-11-25T13:48:42.688Z,85.85
2023-11-25T13:51:14.523Z,85.43
2023-11-25T13:53:46.577Z,85.20
2023-11-25T13:56:18.327Z,84.68
2023-11-25T13:58:50.108Z,84.65
2023-11-25T14:01:22.499Z,84.59
2023-11-25T14:03:57.715Z,84.31
2023-11-25T14:06:31.542Z,84.50
2023-11-25T14:09:04.901Z,84.52
2023-11-25T14:11:36.656Z,84.38
2023-11-25T14:14:09.189Z,84.64
2023-11-25T14:16:41.268Z,83.93
2023-11-25T14:19:13.843Z,83.06
2023-11-25T14:21:45.602Z,83.47
2023-11-25T14:24:18.232Z,83.38
2023-11-25T14:26:50.032Z,82.58
2023-11-25T14:29:21.800Z,81.42
2023-11-25T14:31:53.607Z,82.97
2023-11-25T14:34:25.920Z,82.45
2023-11-25T14:39:44.172Z,82.22
2023-11-25T14:42:19.567Z,82.44
2023-11-25T14:44:56.898Z,82.84
2023-11-25T14:47:28.914Z,82.70
2023-11-25T14:50:01.371Z,82.47
2023-11-25T14:52:35.831Z,82.65
2023-11-25T14:55:09.788Z,83.29
2023-11-25T14:57:41.620Z,82.99
2023-11-25T15:00:14.658Z,83.07
2023-11-25T15:02:46.481Z,83.33
2023-11-25T15:05:18.604Z,83.44
2023-11-25T15:07:50.502Z,83.67
2023-11-25T15:10:26.888Z,83.02
2023-11-25T15:12:58.985Z,83.95
2023-11-25T15:15:30.868Z,83.50
2023-11-25T15:18:02.755Z,83.27
2023-11-25T15:20:35.262Z,83.42
2023-11-25T15:23:07.080Z,83.07
2023-11-25T15:25:38.868Z,84.08
2023-11-25T15:28:17.177Z,83.27
2023-11-25T15:30:49.287Z,84.05
2023-11-25T15:33:21.260Z,83.93
2023-11-25T15:35:53.064Z,82.10
2023-11-25T15:38:24.853Z,82.35
2023-11-25T15:40:56.864Z,82.48
2023-11-25T15:43:29.886Z,82.15
2023-11-25T15:46:02.329Z,81.53
2023-11-25T15:48:34.186Z,81.15
2023-11-25T15:51:08.062Z,81.69
2023-11-25T15:53:39.909Z,81.38
2023-11-25T15:56:12.012Z,81.04
2023-11-25T15:58:43.825Z,81.21
2023-11-25T16:01:15.822Z,80.82
2023-11-25T16:03:47.661Z,81.28
2023-11-25T16:06:19.427Z,81.54
2023-11-25T16:08:51.667Z,81.70
2023-11-25T16:11:23.495Z,81.77
2023-11-25T16:13:55.804Z,81.88
2023-11-25T16:16:31.860Z,82.29
2023-11-25T16:19:03.982Z,82.41
2023-11-25T16:21:38.097Z,82.91
2023-11-25T16:24:09.983Z,82.90
2023-11-25T16:26:42.475Z,83.46
2023-11-25T16:29:14.268Z,83.96
2023-11-25T16:31:46.155Z,83.90
2023-11-25T16:34:17.968Z,83.84
2023-11-25T16:36:50.460Z,84.22
2023-11-25T16:39:23.892Z,84.70
2023-11-25T16:41:55.879Z,85.43
2023-11-25T16:44:27.717Z,85.11
2023-11-25T16:46:59.925Z,84.65
2023-11-25T16:49:40.938Z,84.43
2023-11-25T16:52:14.026Z,84.66
2023-11-25T16:54:45.786Z,84.20
2023-11-25T16:57:17.817Z,84.64
2023-11-25T16:59:49.686Z,84.86
2023-11-25T17:02:24.218Z,84.76
2023-11-25T17:04:56.216Z,84.16
2023-11-25T17:07:30.275Z,84.83
2023-11-25T17:10:05.302Z,84.76
2023-11-25T17:12:37.165Z,84.15
2023-11-25T17:15:09.217Z,83.94
2023-11-25T17:17:42.471Z,83.72
2023-11-25T17:20:15.196Z,83.74
2023-11-25T17:22:47.119Z,83.63
2023-11-25T17:25:18.854Z,82.63
2023-11-25T17:27:50.644Z,82.98
2023-11-25T17:30:22.418Z,82.57
2023-11-25T17:32:55.056Z,83.03
2023-11-25T17:35:26.861Z,82.42
2023-11-25T17:37:58.728Z,82.55
2023-11-25T17:40:30.527Z,82.32
2023-11-25T17:43:02.302Z,81.76
2023-11-25T17:45:34.148Z,81.53
2023-11-25T17:48:06.600Z,80.84
2023-11-25T17:50:38.894Z,81.02
2023-11-25T17:53:14.581Z,81.27
2023-11-25T17:55:46.934Z,80.94
2023-11-25T17:58:18.706Z,81.29
2023-11-25T18:00:52.558Z,81.33
2023-11-25T18:03:25.495Z,81.56
2023-11-25T18:05:57.677Z,81.75
2023-11-25T18:08:30.204Z,81.75
2023-11-25T18:11:02.005Z,81.55
2023-11-25T18:13:36.062Z,81.96
2023-11-25T18:16:10.245Z,82.43
2023-11-25T18:18:42.106Z,82.01
2023-11-25T18:21:14.013Z,82.71
2023-11-25T18:23:45.848Z,83.29
2023-11-25T18:26:18.225Z,83.64
2023-11-25T18:28:50.007Z,83.26
2023-11-25T18:31:21.803Z,83.98
2023-11-25T18:33:53.606Z,83.63
2023-11-25T18:36:25.357Z,84.38
2023-11-25T18:38:57.105Z,84.28
2023-11-25T18:41:28.857Z,84.69
2023-11-25T18:44:00.698Z,85.16
2023-11-25T18:46:32.760Z,85.23
2023-11-25T18:49:07.901Z,85.27
2023-11-25T18:51:39.892Z,85.30
2023-11-25T18:54:11.684Z,85.77
2023-11-25T18:56:43.513Z,85.72
2023-11-25T18:59:17.344Z,86.21
2023-11-25T19:01:51.664Z,85.70
2023-11-25T19:04:23.946Z,85.09
2023-11-25T19:06:56.236Z,85.50
2023-11-25T19:09:28.034Z,84.98
2023-11-25T19:12:00.201Z,84.94
2023-11-25T19:14:31.973Z,85.30
2023-11-25T19:17:04.552Z,85.55
2023-11-25T19:19:36.759Z,85.88
2023-11-25T19:22:11.381Z,85.66
2023-11-25T19:24:43.746Z,85.18
2023-11-25T19:27:15.742Z,85.10
2023-11-25T19:29:47.525Z,85.62
2023-11-25T19:32:19.642Z,85.22
2023-11-25T19:34:52.264Z,84.92
2023-11-25T19:37:25.424Z,85.53
2023-11-25T19:39:57.398Z,85.22
2023-11-25T19:42:29.369Z,84.81
2023-11-25T19:45:01.277Z,84.53
2023-11-25T19:47:33.266Z,84.37
2023-11-25T19:50:07.522Z,84.16
2023-11-25T19:52:39.772Z,83.33
2023-11-25T19:55:11.728Z,83.14
2023-11-25T19:57:43.488Z,83.20
2023-11-25T20:00:17.355Z,82.97
2023-11-25T20:02:49.282Z,82.85
2023-11-25T20:05:21.274Z,83.61
2023-11-25T20:07:53.203Z,83.17
2023-11-25T20:10:24.987Z,83.34
2023-11-25T20:12:56.773Z,83.84
2023-11-25T20:15:28.601Z,83.99
2023-11-25T20:18:00.470Z,83.79
2023-11-25T20:20:33.548Z,83.87
2023-11-25T20:23:05.381Z,83.31
2023-11-25T20:25:37.171Z,83.64
2023-11-25T20:28:08.914Z,83.57
2023-11-25T20:30:42.047Z,83.63
2023-11-25T20:33:13.908Z,83.21
2023-11-25T20:35:46.160Z,82.83
2023-11-25T20:38:18.399Z,82.19
2023-11-25T20:40:50.216Z,82.03
2023-11-25T20:43:22.586Z,81.98
2023-11-25T20:45:54.400Z,81.86
2023-11-25T20:48:26.276Z,82.01
2023-11-25T20:51:02.810Z,81.64
2023-11-25T20:53:35.588Z,82.14
2023-11-25T20:56:08.824Z,82.09
2023-11-25T20:58:40.646Z,82.26
2023-11-25T21:01:12.669Z,82.02
2023-11-25T21:03:44.669Z,82.39
2023-11-25T21:06:16.567Z,81.80
2023-11-25T21:08:48.935Z,81.67
2023-11-25T21:11:20.707Z,81.66
2023-11-25T21:13:53.280Z,81.37
2023-11-25T21:16:25.441Z,81.85
2023-11-25T21:18:58.976Z,81.94
2023-11-25T21:21:30.729Z,82.76
2023-11-25T21:24:02.569Z,82.28
2023-11-25T21:26:34.513Z,82.33
2023-11-25T21:29:06.324Z,82.45
2023-11-25T21:31:38.091Z,82.83
2023-11-25T21:34:10.032Z,82.49
2023-11-25T21:36:41.825Z,82.75
2023-11-25T21:39:15.708Z,83.59
2023-11-25T21:41:47.457Z,83.23
2023-11-25T21:44:19.198Z,82.96
2023-11-25T21:46:51.625Z,83.09
2023-11-25T21:49:23.405Z,83.09
2023-11-25T21:51:55.185Z,83.11
2023-11-25T21:54:27.415Z,83.26
2023-11-25T21:56:59.190Z,83.29
2023-11-25T21:59:33.137Z,83.28
2023-11-25T22:02:05.501Z,83.45
2023-11-25T22:04:39.876Z,83.24
2023-11-25T22:07:11.687Z,83.18
2023-11-25T22:09:43.553Z,83.17
2023-11-25T22:12:15.309Z,83.19
2023-11-25T22:14:47.081Z,83.00
2023-11-25T22:17:19.642Z,83.23
2023-11-25T22:19:51.522Z,83.46
2023-11-25T22:22:23.595Z,83.64
2023-11-25T22:24:59.438Z,83.37
2023-11-25T22:27:32.871Z,83.72
2023-11-25T22:30:05.684Z,83.71
2023-11-25T22:32:37.536Z,83.63
2023-11-25T22:35:09.572Z,84.25
2023-11-25T22:37:41.405Z,83.78
2023-11-25T22:40:14.055Z,83.47
2023-11-25T22:42:45.962Z,83.26
2023-11-25T22:45:17.747Z,83.13
2023-11-25T22:47:49.561Z,83.40
2023-11-25T22:50:21.551Z,82.76
2023-11-25T22:52:53.461Z,83.14
2023-11-25T22:55:25.776Z,82.96
2023-11-25T22:57:57.571Z,82.50
2023-11-25T23:00:40.634Z,82.39
2023-11-25T23:03:12.600Z,82.42
2023-11-25T23:05:44.446Z,81.61
2023-11-25T23:08:16.322Z,81.91
2023-11-25T23:10:48.971Z,81.91
2023-11-25T23:13:21.629Z,81.54
2023-11-25T23:15:53.460Z,81.25
2023-11-25T23:18:26.425Z,82.28
2023-11-25T23:20:59.783Z,81.53
2023-11-25T23:23:40.521Z,81.50
2023-11-25T23:26:17.961Z,81.42
2023-11-25T23:28:49.901Z,80.65
2023-11-25T23:31:21.869Z,81.43
2023-11-25T23:33:55.477Z,81.53
2023-11-25T23:36:27.255Z,81.49
2023-11-25T23:38:59.055Z,81.29
2023-11-25T23:41:30.827Z,81.20
2023-11-25T23:44:02.656Z,80.95
2023-11-25T23:46:34.475Z,79.92
2023-11-25T23:49:06.255Z,79.49
2023-11-25T23:51:38.018Z,79.86
2023-11-25T23:54:09.771Z,79.83
2023-11-25T23:56:41.544Z,80.76
2023-11-25T23:59:13.638Z,80.54
